Oxnard Airport Oxnard US
ICAO: KOXR
IATA: OXR
Category: Medium
Scheduled Services: No

Elevation: 45 ft
TransAlt. 18000 ft.

Airport Communications:
PT MUGU APP/DEP:124.7
ATIS:118.05
CTAF:134.95
GND:121.9
TWR:134.95

KOXR Zoom In..

Runways:

(A) RW 07 length 5953 ft width 100 ft
---- / hdg 76

(B) RW 25 length 5953 ft width 100 ft
ILS 108.70 / hdg 256

Location; KOXR
Day. 10 / Time. 07.51 Zulu
* Altimeter: 30.06
* Temperature: 10° c. 50°f.
* Wind from: 070° Speed 05 kn.
Dewpoint: 08° c.
Visibility: 10 Statute Miles.
Clouds: Overcast 6000 ft.
Conditions: Light Rain.

KOXR 100751Z AUTO 07005KT 10SM -RA OVC060 10/08 A3006 RMK AO2 SLP178 P0001 T01000083 401170094


Wind From 070°
Speed 05 kn.

 
 
jpsmedia worldairports.se 2020   terms of use